Time;durP1;ratioP1;P1;durP2;ratioP2;P2;SDS_P1;SDS_P2;PMS_P1;PMS_P2;Temp;Humidity;BMP_temperature;BMP_pressure;BME280_temperature;BME280_humidity;BME280_pressure;Samples;Min_cycle;Max_cycle;Signal;HPM_P1;HPM_P2
2022/04/21 00:00:34;;;;;;;;;;;;;;;;;;5020956;28;20027;-81
2022/04/21 00:03:01;;;;;;;;;;;;;;;;;;4984779;28;19960;-82
2022/04/21 00:05:28;;;;;;;;;;;;;;;;;;5006385;28;19925;-82
2022/04/21 00:07:55;;;;;;;;;;;;;;;;;;4981031;28;19937;-82
2022/04/21 00:10:23;;;;;;;;;;;;;;;;;;5004264;28;19925;-82
2022/04/21 00:12:49;;;;;;;;;;;;;;;;;;4986740;28;20075;-82
2022/04/21 00:15:26;;;;;;;;;;;;;;;;;;5006107;28;19929;-82
2022/04/21 00:17:53;;;;;;;;;;;;;;;;;;4998601;28;19925;-82
2022/04/21 00:20:19;;;;;;;;;;;;;;;;;;5004396;28;19933;-82
2022/04/21 00:25:37;;;;;;;;;;;;;;;;;;5003356;28;19979;-82
2022/04/21 00:28:13;;;;;;;;;;;;;;;;;;5007809;28;20026;-82
2022/04/21 00:30:40;;;;;;;;;;;;;;;;;;5006783;28;19921;-82
2022/04/21 00:33:06;;;;;;;;;;;;;;;;;;4997172;28;20380;-82
2022/04/21 00:35:32;;;;;;;;;;;;;;;;;;5002454;28;19936;-82
2022/04/21 00:38:00;;;;;;;;;;;;;;;;;;4998951;28;19930;-81
2022/04/21 00:40:30;;;;;;;;;;;;;;;;;;5001621;28;19926;-82
2022/04/21 00:43:12;;;;;;;;;;;;;;;;;;4959590;28;19926;-82
2022/04/21 00:45:39;;;;;;;;;;;;;;;;;;4964443;28;19930;-82
2022/04/21 00:48:06;;;;;;;;;;;;;;;;;;4929046;28;19930;-82
2022/04/21 00:50:34;;;;;;;;;;;;;;;;;;4945300;28;20395;-82
2022/04/21 00:53:01;;;;;;;;;;;;;;;;;;4947645;28;20001;-82
2022/04/21 00:55:28;;;;;;;;;;;;;;;;;;4953746;28;20470;-82
2022/04/21 00:58:03;;;;;;;;;;;;;;;;;;4950788;28;19992;-82
2022/04/21 01:00:55;;;;;;;;;;;;;;;;;;4952818;28;19930;-82
2022/04/21 01:03:22;;;;;;;;;;;;;;;;;;4975956;28;20012;-82
2022/04/21 01:05:49;;;;;;;;;;;;;;;;;;4950768;28;20031;-82
2022/04/21 01:08:16;;;;;;;;;;;;;;;;;;4969970;28;20331;-82
2022/04/21 01:10:49;;;;;;;;;;;;;;;;;;4949092;28;19937;-82
2022/04/21 01:13:16;;;;;;;;;;;;;;;;;;4936862;28;19928;-82
2022/04/21 01:15:43;;;;;;;;;;;;;;;;;;5004559;28;20358;-82
2022/04/21 01:18:19;;;;;;;;;;;;;;;;;;5008821;28;20391;-82
2022/04/21 01:20:46;;;;;;;;;;;;;;;;;;5024211;28;19929;-82
2022/04/21 01:23:13;;;;;;;;;;;;;;;;;;5001642;28;19922;-81
2022/04/21 01:25:40;;;;;;;;;;;;;;;;;;5008685;28;19925;-82
2022/04/21 01:28:25;;;;;;;;;;;;;;;;;;5002223;28;20388;-82
2022/04/21 01:30:52;;;;;;;;;;;;;;;;;;4998541;28;20424;-82
2022/04/21 01:33:19;;;;;;;;;;;;;;;;;;4985112;28;19921;-81
2022/04/21 01:35:46;;;;;;;;;;;;;;;;;;5003729;28;20388;-82
2022/04/21 01:41:09;;;;;;;;;;;;;;;;;;4998693;28;20019;-82
2022/04/21 01:43:35;;;;;;;;;;;;;;;;;;5004243;28;19929;-82
2022/04/21 01:46:02;;;;;;;;;;;;;;;;;;4979611;28;19937;-82
2022/04/21 01:48:28;;;;;;;;;;;;;;;;;;4983510;28;19921;-82
2022/04/21 01:50:54;;;;;;;;;;;;;;;;;;4980628;28;19951;-82
2022/04/21 01:53:22;;;;;;;;;;;;;;;;;;4985399;28;19933;-81
2022/04/21 01:55:48;;;;;;;;;;;;;;;;;;4971743;28;19960;-81
2022/04/21 01:58:15;;;;;;;;;;;;;;;;;;5001329;28;19962;-81
2022/04/21 02:00:42;;;;;;;;;;;;;;;;;;5008427;28;19925;-81
2022/04/21 02:03:09;;;;;;;;;;;;;;;;;;5006538;28;20983;-82
2022/04/21 02:05:36;;;;;;;;;;;;;;;;;;5017374;28;19929;-82
2022/04/21 02:08:03;;;;;;;;;;;;;;;;;;5001761;28;20040;-81
2022/04/21 02:10:30;;;;;;;;;;;;;;;;;;5023212;28;20380;-81
2022/04/21 02:13:13;;;;;;;;;;;;;;;;;;4981055;28;19956;-81
2022/04/21 02:15:40;;;;;;;;;;;;;;;;;;4969256;28;19977;-81
2022/04/21 02:18:07;;;;;;;;;;;;;;;;;;4979670;28;19929;-81
2022/04/21 02:20:34;;;;;;;;;;;;;;;;;;4970269;28;19929;-81
2022/04/21 02:23:00;;;;;;;;;;;;;;;;;;4983334;28;20023;-81
2022/04/21 02:25:28;;;;;;;;;;;;;;;;;;4973646;28;20501;-82
2022/04/21 02:27:55;;;;;;;;;;;;;;;;;;4966005;28;20043;-81
2022/04/21 02:30:21;;;;;;;;;;;;;;;;;;4953357;28;19929;-81
2022/04/21 02:32:52;;;;;;;;;;;;;;;;;;4962539;28;20019;-82
2022/04/21 02:35:20;;;;;;;;;;;;;;;;;;4985503;28;19921;-81
2022/04/21 02:37:47;;;;;;;;;;;;;;;;;;4968744;28;19933;-81
2022/04/21 02:40:13;;;;;;;;;;;;;;;;;;4945198;28;19933;-81
2022/04/21 02:42:39;;;;;;;;;;;;;;;;;;4946887;28;19972;-81
2022/04/21 02:45:26;;;;;;;;;;;;;;;;;;5002773;28;19924;-81
2022/04/21 02:47:53;;;;;;;;;;;;;;;;;;4982371;28;20287;-82
2022/04/21 02:50:20;;;;;;;;;;;;;;;;;;4987540;28;20634;-82
2022/04/21 02:52:47;;;;;;;;;;;;;;;;;;4987153;28;19979;-82
2022/04/21 02:58:02;;;;;;;;;;;;;;;;;;4983689;28;20398;-82
2022/04/21 03:00:28;;;;;;;;;;;;;;;;;;4982954;28;20401;-82
2022/04/21 03:02:57;;;;;;;;;;;;;;;;;;5003265;28;19933;-82
2022/04/21 03:05:23;;;;;;;;;;;;;;;;;;4985904;28;19925;-82
2022/04/21 03:07:50;;;;;;;;;;;;;;;;;;4979730;28;19931;-82
2022/04/21 03:10:16;;;;;;;;;;;;;;;;;;4984880;28;20279;-82
2022/04/21 03:12:43;;;;;;;;;;;;;;;;;;4986567;28;20016;-81
2022/04/21 03:15:11;;;;;;;;;;;;;;;;;;4980444;28;19968;-81
2022/04/21 03:17:38;;;;;;;;;;;;;;;;;;4988621;28;19929;-82
2022/04/21 03:20:04;;;;;;;;;;;;;;;;;;4979461;28;20028;-82
2022/04/21 03:25:17;;;;;;;;;;;;;;;;;;5002579;28;20295;-81
2022/04/21 03:27:48;;;;;;;;;;;;;;;;;;4989683;28;19925;-81
2022/04/21 03:30:33;;;;;;;;;;;;;;;;;;4922220;28;19973;-81
2022/04/21 03:33:19;;;;;;;;;;;;;;;;;;4921758;28;20023;-82
2022/04/21 03:35:47;;;;;;;;;;;;;;;;;;4907523;28;19931;-82
2022/04/21 03:38:14;;;;;;;;;;;;;;;;;;4902499;28;20049;-82
2022/04/21 03:40:46;;;;;;;;;;;;;;;;;;4923900;28;19945;-82
2022/04/21 03:43:13;;;;;;;;;;;;;;;;;;4923498;28;19930;-81
2022/04/21 03:45:39;;;;;;;;;;;;;;;;;;4911225;28;20395;-82
2022/04/21 03:48:05;;;;;;;;;;;;;;;;;;4922267;28;19930;-82
2022/04/21 03:50:36;;;;;;;;;;;;;;;;;;4928033;28;19921;-82
2022/04/21 03:53:04;;;;;;;;;;;;;;;;;;4926666;28;19922;-81
2022/04/21 03:55:31;;;;;;;;;;;;;;;;;;4927850;28;19954;-82
2022/04/21 03:57:58;;;;;;;;;;;;;;;;;;4923596;28;19934;-82
2022/04/21 04:00:25;;;;;;;;;;;;;;;;;;4910111;28;19934;-81
2022/04/21 04:02:53;;;;;;;;;;;;;;;;;;4998937;28;19929;-82
2022/04/21 04:05:21;;;;;;;;;;;;;;;;;;4985974;28;20491;-81
2022/04/21 04:10:53;;;;;;;;;;;;;;;;;;4985535;28;19983;-81
2022/04/21 04:13:19;;;;;;;;;;;;;;;;;;4988927;28;20021;-81
2022/04/21 04:15:49;;;;;;;;;;;;;;;;;;5001260;28;20291;-81
2022/04/21 04:18:17;;;;;;;;;;;;;;;;;;4987155;28;19925;-81
2022/04/21 04:20:44;;;;;;;;;;;;;;;;;;5006862;28;20178;-81
2022/04/21 04:23:11;;;;;;;;;;;;;;;;;;5001503;28;19936;-82
2022/04/21 04:25:37;;;;;;;;;;;;;;;;;;5005634;28;21039;-81
2022/04/21 04:28:04;;;;;;;;;;;;;;;;;;5004052;28;19925;-81
2022/04/21 04:30:32;;;;;;;;;;;;;;;;;;4991862;28;20011;-81
2022/04/21 04:32:59;;;;;;;;;;;;;;;;;;4984400;28;19925;-82
2022/04/21 04:35:25;;;;;;;;;;;;;;;;;;5004506;28;19925;-82
2022/04/21 04:37:52;;;;;;;;;;;;;;;;;;4983397;28;20311;-82
2022/04/21 04:40:19;;;;;;;;;;;;;;;;;;4999757;28;20071;-82
2022/04/21 04:42:46;;;;;;;;;;;;;;;;;;5023618;28;19929;-81
2022/04/21 04:48:03;;;;;;;;;;;;;;;;;;5022249;28;19925;-81
2022/04/21 04:50:40;;;;;;;;;;;;;;;;;;5024083;28;19928;-82
2022/04/21 04:53:06;;;;;;;;;;;;;;;;;;5022708;28;19924;-81
2022/04/21 04:55:47;;;;;;;;;;;;;;;;;;4986630;28;19929;-82
2022/04/21 04:58:14;;;;;;;;;;;;;;;;;;4964672;28;20388;-82
2022/04/21 05:00:56;;;;;;;;;;;;;;;;;;4936737;28;19921;-81
2022/04/21 05:03:22;;;;;;;;;;;;;;;;;;4944959;28;19926;-82
2022/04/21 05:05:51;;;;;;;;;;;;;;;;;;4924880;28;19926;-82
2022/04/21 05:08:17;;;;;;;;;;;;;;;;;;4944574;28;20066;-82
2022/04/21 05:10:43;;;;;;;;;;;;;;;;;;4928359;28;20040;-82
2022/04/21 05:13:25;;;;;;;;;;;;;;;;;;4915579;28;19966;-82
2022/04/21 05:15:52;;;;;;;;;;;;;;;;;;4921373;28;20416;-81
2022/04/21 05:18:19;;;;;;;;;;;;;;;;;;4930621;28;19929;-82
2022/04/21 05:20:46;;;;;;;;;;;;;;;;;;4906908;28;19937;-82
2022/04/21 05:23:12;;;;;;;;;;;;;;;;;;4906184;28;19926;-82
2022/04/21 05:25:40;;;;;;;;;;;;;;;;;;4926064;28;20324;-82
2022/04/21 05:28:09;;;;;;;;;;;;;;;;;;4923505;28;19929;-82
2022/04/21 05:33:24;;;;;;;;;;;;;;;;;;4965527;28;20137;-81
2022/04/21 05:35:51;;;;;;;;;;;;;;;;;;4957484;28;19979;-82
2022/04/21 05:38:21;;;;;;;;;;;;;;;;;;4951377;28;19936;-82
2022/04/21 05:41:03;;;;;;;;;;;;;;;;;;4908309;29;19942;-82
2022/04/21 05:43:30;;;;;;;;;;;;;;;;;;4906162;28;19949;-81
2022/04/21 05:45:58;;;;;;;;;;;;;;;;;;4951653;28;19929;-81
2022/04/21 05:48:25;;;;;;;;;;;;;;;;;;4951520;28;19934;-81
2022/04/21 05:50:53;;;;;;;;;;;;;;;;;;4950001;28;20300;-81
2022/04/21 05:53:21;;;;;;;;;;;;;;;;;;4937324;28;19960;-82
2022/04/21 05:55:46;;;;;;;;;;;;;;;;;;4922889;28;19926;-82
2022/04/21 05:58:14;;;;;;;;;;;;;;;;;;4949224;28;19922;-82
2022/04/21 06:00:41;;;;;;;;;;;;;;;;;;4952631;28;19980;-81
2022/04/21 06:03:07;;;;;;;;;;;;;;;;;;4932875;28;20020;-82
2022/04/21 06:05:41;;;;;;;;;;;;;;;;;;4956090;28;20383;-82
2022/04/21 06:08:08;;;;;;;;;;;;;;;;;;4949357;28;20079;-82
2022/04/21 06:10:34;;;;;;;;;;;;;;;;;;4940513;28;19929;-82
2022/04/21 06:13:02;;;;;;;;;;;;;;;;;;5005860;28;19925;-82
2022/04/21 06:15:30;;;;;;;;;;;;;;;;;;5014975;28;19935;-82
2022/04/21 06:17:57;;;;;;;;;;;;;;;;;;4993679;28;20634;-82
2022/04/21 06:20:24;;;;;;;;;;;;;;;;;;5015861;28;19982;-82
2022/04/21 06:22:50;;;;;;;;;;;;;;;;;;5010241;28;19999;-82
2022/04/21 06:25:17;;;;;;;;;;;;;;;;;;4999499;28;20007;-82
2022/04/21 06:27:45;;;;;;;;;;;;;;;;;;5015105;28;19920;-82
2022/04/21 06:30:12;;;;;;;;;;;;;;;;;;5010962;28;19972;-82
2022/04/21 06:32:41;;;;;;;;;;;;;;;;;;5037405;28;19931;-82
2022/04/21 06:35:09;;;;;;;;;;;;;;;;;;5008952;28;19986;-82
2022/04/21 06:37:37;;;;;;;;;;;;;;;;;;5012987;28;20683;-81
2022/04/21 06:40:03;;;;;;;;;;;;;;;;;;4999307;28;19951;-82
2022/04/21 06:42:30;;;;;;;;;;;;;;;;;;4995418;28;20008;-82
2022/04/21 06:50:33;;;;;;;;;;;;;;;;;;5014614;28;19986;-82
2022/04/21 06:53:01;;;;;;;;;;;;;;;;;;4990656;28;19945;-82
2022/04/21 06:55:28;;;;;;;;;;;;;;;;;;4995324;28;19932;-82
2022/04/21 06:57:55;;;;;;;;;;;;;;;;;;4975852;28;20016;-82
2022/04/21 07:00:22;;;;;;;;;;;;;;;;;;4996049;28;19940;-82
2022/04/21 07:02:50;;;;;;;;;;;;;;;;;;4991809;28;20379;-85
2022/04/21 07:05:18;;;;;;;;;;;;;;;;;;4994902;28;19925;-85
2022/04/21 07:08:03;;;;;;;;;;;;;;;;;;5006135;28;20347;-85
2022/04/21 07:10:31;;;;;;;;;;;;;;;;;;5026808;28;19932;-85
2022/04/21 07:12:58;;;;;;;;;;;;;;;;;;4990562;28;19925;-85
2022/04/21 07:15:25;;;;;;;;;;;;;;;;;;4996613;28;19932;-85
2022/04/21 07:17:52;;;;;;;;;;;;;;;;;;4990291;28;20401;-85
2022/04/21 07:20:20;;;;;;;;;;;;;;;;;;5015517;28;20040;-85
2022/04/21 07:22:48;;;;;;;;;;;;;;;;;;4992351;28;19940;-85
2022/04/21 07:25:16;;;;;;;;;;;;;;;;;;5011987;28;20376;-85
2022/04/21 07:27:44;;;;;;;;;;;;;;;;;;5013685;28;19967;-85
2022/04/21 07:30:11;;;;;;;;;;;;;;;;;;5008765;28;20840;-83
2022/04/21 07:32:38;;;;;;;;;;;;;;;;;;4995729;28;20012;-83
2022/04/21 07:35:04;;;;;;;;;;;;;;;;;;4991047;28;19925;-83
2022/04/21 07:37:33;;;;;;;;;;;;;;;;;;4995261;28;19921;-83
2022/04/21 07:39:58;;;;;;;;;;;;;;;;;;4994237;28;19940;-83
2022/04/21 07:42:25;;;;;;;;;;;;;;;;;;5012742;28;19929;-83
2022/04/21 07:44:52;;;;;;;;;;;;;;;;;;5006156;28;20319;-82
2022/04/21 07:47:20;;;;;;;;;;;;;;;;;;4976611;28;20272;-83
2022/04/21 07:49:48;;;;;;;;;;;;;;;;;;4995891;28;20023;-83
2022/04/21 07:55:03;;;;;;;;;;;;;;;;;;4991232;28;19921;-83
2022/04/21 07:57:30;;;;;;;;;;;;;;;;;;4993953;28;19991;-83
2022/04/21 07:59:57;;;;;;;;;;;;;;;;;;4987271;28;19925;-83
2022/04/21 08:02:24;;;;;;;;;;;;;;;;;;4991628;28;20051;-83
2022/04/21 08:04:50;;;;;;;;;;;;;;;;;;4984470;28;19971;-86
2022/04/21 08:07:18;;;;;;;;;;;;;;;;;;4977690;28;19935;-84
2022/04/21 08:09:44;;;;;;;;;;;;;;;;;;4989346;28;19929;-83
2022/04/21 08:12:11;;;;;;;;;;;;;;;;;;4969344;28;19967;-84
2022/04/21 08:14:39;;;;;;;;;;;;;;;;;;4990531;28;19951;-84
2022/04/21 08:17:07;;;;;;;;;;;;;;;;;;4992322;28;19928;-84
2022/04/21 08:19:43;;;;;;;;;;;;;;;;;;4998964;28;19925;-83
2022/04/21 08:22:11;;;;;;;;;;;;;;;;;;4995577;28;19936;-83
2022/04/21 08:33:04;;;;;;;;;;;;;;;;;;4995358;28;20582;-84
2022/04/21 08:35:30;;;;;;;;;;;;;;;;;;4998262;28;20015;-84
2022/04/21 08:37:57;;;;;;;;;;;;;;;;;;4994999;28;20039;-84
2022/04/21 08:40:27;;;;;;;;;;;;;;;;;;5002127;28;20008;-84
2022/04/21 08:42:57;;;;;;;;;;;;;;;;;;5012421;28;19925;-84
2022/04/21 08:45:24;;;;;;;;;;;;;;;;;;5004129;28;23147;-84
2022/04/21 08:47:50;;;;;;;;;;;;;;;;;;5014962;28;19928;-84
2022/04/21 08:50:17;;;;;;;;;;;;;;;;;;5003584;28;19921;-84
2022/04/21 08:52:45;;;;;;;;;;;;;;;;;;5003205;28;20398;-83
2022/04/21 08:55:27;;;;;;;;;;;;;;;;;;4956506;28;19922;-84
2022/04/21 08:57:56;;;;;;;;;;;;;;;;;;4935746;28;19967;-84
2022/04/21 09:00:22;;;;;;;;;;;;;;;;;;4944143;28;19929;-84
2022/04/21 09:02:50;;;;;;;;;;;;;;;;;;4940826;28;20352;-84
2022/04/21 09:05:20;;;;;;;;;;;;;;;;;;4941645;28;20399;-84
2022/04/21 09:07:47;;;;;;;;;;;;;;;;;;4944467;28;19948;-84
2022/04/21 09:10:14;;;;;;;;;;;;;;;;;;4933418;28;20020;-84
2022/04/21 09:12:57;;;;;;;;;;;;;;;;;;4919478;29;19933;-84
2022/04/21 09:15:25;;;;;;;;;;;;;;;;;;4903164;29;19955;-84
2022/04/21 09:17:51;;;;;;;;;;;;;;;;;;4904029;29;19931;-84
2022/04/21 09:20:18;;;;;;;;;;;;;;;;;;4920829;29;19930;-84
2022/04/21 09:22:54;;;;;;;;;;;;;;;;;;4908914;29;20017;-84
2022/04/21 09:25:22;;;;;;;;;;;;;;;;;;4923295;28;20021;-84
2022/04/21 09:27:52;;;;;;;;;;;;;;;;;;4959399;28;20357;-83
2022/04/21 09:30:19;;;;;;;;;;;;;;;;;;4952479;28;19925;-83
2022/04/21 09:32:48;;;;;;;;;;;;;;;;;;4956268;28;19922;-84
2022/04/21 09:35:15;;;;;;;;;;;;;;;;;;4943403;28;19936;-84
2022/04/21 09:37:43;;;;;;;;;;;;;;;;;;4972990;28;19930;-84
2022/04/21 09:40:09;;;;;;;;;;;;;;;;;;4974912;28;19969;-84
2022/04/21 09:42:36;;;;;;;;;;;;;;;;;;5000347;28;20687;-84
2022/04/21 09:47:54;;;;;;;;;;;;;;;;;;4997408;28;19932;-84
2022/04/21 09:50:22;;;;;;;;;;;;;;;;;;5001814;28;20033;-84
2022/04/21 09:53:03;;;;;;;;;;;;;;;;;;4991847;28;20293;-84
2022/04/21 09:55:31;;;;;;;;;;;;;;;;;;4980013;28;19961;-84
2022/04/21 09:57:58;;;;;;;;;;;;;;;;;;4982356;28;20411;-84
2022/04/21 10:00:26;;;;;;;;;;;;;;;;;;4985584;28;19929;-84
2022/04/21 10:02:54;;;;;;;;;;;;;;;;;;4977404;28;19921;-84
2022/04/21 10:05:21;;;;;;;;;;;;;;;;;;4986185;28;19975;-84
2022/04/21 10:07:49;;;;;;;;;;;;;;;;;;4984042;28;19926;-84
2022/04/21 10:10:16;;;;;;;;;;;;;;;;;;4999605;28;20003;-84
2022/04/21 10:12:44;;;;;;;;;;;;;;;;;;4986266;28;20337;-84
2022/04/21 10:15:11;;;;;;;;;;;;;;;;;;4996870;28;20639;-84
2022/04/21 10:17:39;;;;;;;;;;;;;;;;;;4983959;28;19922;-84
2022/04/21 10:20:05;;;;;;;;;;;;;;;;;;4977582;28;19965;-84
2022/04/21 10:22:33;;;;;;;;;;;;;;;;;;4983691;28;20404;-84
2022/04/21 10:25:00;;;;;;;;;;;;;;;;;;4997782;28;19925;-84
2022/04/21 10:27:27;;;;;;;;;;;;;;;;;;5000401;28;19921;-84
2022/04/21 10:29:54;;;;;;;;;;;;;;;;;;4987992;28;19931;-84
2022/04/21 10:32:22;;;;;;;;;;;;;;;;;;4999482;28;20016;-84
2022/04/21 10:34:49;;;;;;;;;;;;;;;;;;5022097;28;19936;-84
2022/04/21 10:37:18;;;;;;;;;;;;;;;;;;4996512;28;19921;-84
2022/04/21 10:39:45;;;;;;;;;;;;;;;;;;5014582;28;19975;-84
2022/04/21 10:42:13;;;;;;;;;;;;;;;;;;5013489;28;19940;-84
2022/04/21 10:44:41;;;;;;;;;;;;;;;;;;5016571;28;19929;-84
2022/04/21 10:47:08;;;;;;;;;;;;;;;;;;4990643;28;20413;-84
2022/04/21 10:49:35;;;;;;;;;;;;;;;;;;4992764;28;19936;-84
2022/04/21 10:57:37;;;;;;;;;;;;;;;;;;5015449;28;19967;-84
2022/04/21 11:00:04;;;;;;;;;;;;;;;;;;5011891;28;20020;-85
2022/04/21 11:02:32;;;;;;;;;;;;;;;;;;4998779;28;19925;-84
2022/04/21 11:04:59;;;;;;;;;;;;;;;;;;4991870;28;19925;-84
2022/04/21 11:07:26;;;;;;;;;;;;;;;;;;4997100;28;19980;-84
2022/04/21 11:09:54;;;;;;;;;;;;;;;;;;5014542;28;19921;-84
2022/04/21 11:12:20;;;;;;;;;;;;;;;;;;5016868;28;20269;-84
2022/04/21 11:14:53;;;;;;;;;;;;;;;;;;4992302;28;19932;-84
2022/04/21 11:17:20;;;;;;;;;;;;;;;;;;4994686;28;19925;-84
2022/04/21 11:19:49;;;;;;;;;;;;;;;;;;5011200;28;19940;-84
2022/04/21 11:22:34;;;;;;;;;;;;;;;;;;5014150;28;20264;-84
2022/04/21 11:25:04;;;;;;;;;;;;;;;;;;5008796;28;19928;-84
2022/04/21 11:27:47;;;;;;;;;;;;;;;;;;4974018;28;19925;-84
2022/04/21 11:30:13;;;;;;;;;;;;;;;;;;4967531;28;19926;-84
2022/04/21 11:32:42;;;;;;;;;;;;;;;;;;4949111;28;20017;-84
2022/04/21 11:35:12;;;;;;;;;;;;;;;;;;4962757;28;20017;-85
2022/04/21 11:37:39;;;;;;;;;;;;;;;;;;4954268;28;19934;-85
2022/04/21 11:40:06;;;;;;;;;;;;;;;;;;4967470;28;19930;-85
2022/04/21 11:42:36;;;;;;;;;;;;;;;;;;4984381;28;19964;-85
2022/04/21 11:45:04;;;;;;;;;;;;;;;;;;4982634;28;20004;-84
2022/04/21 11:47:33;;;;;;;;;;;;;;;;;;4989256;28;19929;-85
2022/04/21 11:50:10;;;;;;;;;;;;;;;;;;4966452;28;20065;-84
2022/04/21 11:52:37;;;;;;;;;;;;;;;;;;4973526;28;19929;-84
2022/04/21 11:55:04;;;;;;;;;;;;;;;;;;4987702;28;20419;-84
2022/04/21 11:57:31;;;;;;;;;;;;;;;;;;4974665;28;19964;-84
2022/04/21 12:00:15;;;;;;;;;;;;;;;;;;4911606;28;20362;-84
2022/04/21 12:08:17;;;;;;;;;;;;;;;;;;4929348;28;19926;-85
2022/04/21 12:10:44;;;;;;;;;;;;;;;;;;4931800;28;20073;-85
2022/04/21 12:13:12;;;;;;;;;;;;;;;;;;4926043;28;19931;-84
2022/04/21 12:15:39;;;;;;;;;;;;;;;;;;4915496;29;19933;-84
2022/04/21 12:18:06;;;;;;;;;;;;;;;;;;4925769;28;19929;-84
2022/04/21 12:20:34;;;;;;;;;;;;;;;;;;4933166;28;20025;-84
2022/04/21 12:23:01;;;;;;;;;;;;;;;;;;4909309;28;19922;-84
2022/04/21 12:25:28;;;;;;;;;;;;;;;;;;4911911;28;19930;-84
2022/04/21 12:27:55;;;;;;;;;;;;;;;;;;4915179;28;19929;-83
2022/04/21 12:30:22;;;;;;;;;;;;;;;;;;4928197;28;19933;-84
2022/04/21 12:32:50;;;;;;;;;;;;;;;;;;4993360;28;19925;-84
2022/04/21 12:35:35;;;;;;;;;;;;;;;;;;4949530;28;20456;-84
2022/04/21 12:40:49;;;;;;;;;;;;;;;;;;4953915;28;19930;-84
2022/04/21 12:43:23;;;;;;;;;;;;;;;;;;4938264;28;19936;-84
2022/04/21 12:45:49;;;;;;;;;;;;;;;;;;4951654;28;19960;-84
2022/04/21 12:48:16;;;;;;;;;;;;;;;;;;4962197;28;20424;-84
2022/04/21 12:50:44;;;;;;;;;;;;;;;;;;4952654;28;20317;-84
2022/04/21 12:53:11;;;;;;;;;;;;;;;;;;4937456;28;19930;-84
2022/04/21 12:55:38;;;;;;;;;;;;;;;;;;4954244;28;19925;-84
2022/04/21 12:58:23;;;;;;;;;;;;;;;;;;4934377;28;19922;-84
2022/04/21 13:00:50;;;;;;;;;;;;;;;;;;4956899;28;19926;-84
2022/04/21 13:03:17;;;;;;;;;;;;;;;;;;4957764;28;19934;-84
2022/04/21 13:05:44;;;;;;;;;;;;;;;;;;4975468;28;19925;-84
2022/04/21 13:08:12;;;;;;;;;;;;;;;;;;5008654;28;19929;-83
2022/04/21 13:10:39;;;;;;;;;;;;;;;;;;5012604;28;19929;-84
2022/04/21 13:13:18;;;;;;;;;;;;;;;;;;5015258;28;19932;-84
2022/04/21 13:15:45;;;;;;;;;;;;;;;;;;5015540;28;19932;-84
2022/04/21 13:18:12;;;;;;;;;;;;;;;;;;4990270;28;19929;-84
2022/04/21 13:23:27;;;;;;;;;;;;;;;;;;5014429;28;19991;-84
2022/04/21 13:25:54;;;;;;;;;;;;;;;;;;4991777;28;20372;-84
2022/04/21 13:28:22;;;;;;;;;;;;;;;;;;4999852;28;20368;-84
2022/04/21 13:33:21;;;;;;;;;;;;;;;;;;5010859;28;20299;-84
2022/04/21 13:33:56;;;;;;;;;;;;;;;;;;5012009;28;20454;-84
2022/04/21 13:36:22;;;;;;;;;;;;;;;;;;5015753;28;20364;-84
2022/04/21 13:38:49;;;;;;;;;;;;;;;;;;5009160;28;19925;-84
2022/04/21 13:41:17;;;;;;;;;;;;;;;;;;5011989;28;19933;-84
2022/04/21 13:43:54;;;;;;;;;;;;;;;;;;4998928;28;19948;-84
2022/04/21 13:46:24;;;;;;;;;;;;;;;;;;5017100;28;19921;-84
2022/04/21 13:48:52;;;;;;;;;;;;;;;;;;4998432;28;20369;-84
2022/04/21 13:51:18;;;;;;;;;;;;;;;;;;4983366;28;19982;-84
2022/04/21 13:53:45;;;;;;;;;;;;;;;;;;5020004;28;20338;-84
2022/04/21 13:56:12;;;;;;;;;;;;;;;;;;5013787;28;19936;-84
2022/04/21 13:58:39;;;;;;;;;;;;;;;;;;5000653;28;19925;-84
2022/04/21 14:01:06;;;;;;;;;;;;;;;;;;4994002;28;19932;-84
2022/04/21 14:03:36;;;;;;;;;;;;;;;;;;5000605;28;19924;-84
2022/04/21 14:06:03;;;;;;;;;;;;;;;;;;4996491;28;19924;-85
2022/04/21 14:08:30;;;;;;;;;;;;;;;;;;4986268;28;19929;-85
2022/04/21 14:10:58;;;;;;;;;;;;;;;;;;4994558;28;19948;-84
2022/04/21 14:13:25;;;;;;;;;;;;;;;;;;5002401;28;19921;-84
2022/04/21 14:15:52;;;;;;;;;;;;;;;;;;4995607;28;19979;-84
2022/04/21 14:18:19;;;;;;;;;;;;;;;;;;5001414;28;20399;-84
2022/04/21 14:20:47;;;;;;;;;;;;;;;;;;5000557;28;19929;-84
2022/04/21 14:23:13;;;;;;;;;;;;;;;;;;4995552;28;20367;-84
2022/04/21 14:25:41;;;;;;;;;;;;;;;;;;5018166;28;19975;-84
2022/04/21 14:28:08;;;;;;;;;;;;;;;;;;4995149;28;19929;-85
2022/04/21 14:30:38;;;;;;;;;;;;;;;;;;5002855;28;20008;-85
2022/04/21 14:33:06;;;;;;;;;;;;;;;;;;5014993;28;19928;-84
2022/04/21 14:35:33;;;;;;;;;;;;;;;;;;5008296;28;19928;-85
2022/04/21 14:46:20;;;;;;;;;;;;;;;;;;4977873;28;19922;-84
2022/04/21 14:48:47;;;;;;;;;;;;;;;;;;4978762;28;20333;-84
2022/04/21 14:51:33;;;;;;;;;;;;;;;;;;4989761;28;19933;-80
2022/04/21 14:54:00;;;;;;;;;;;;;;;;;;4971008;28;19929;-80
2022/04/21 14:56:27;;;;;;;;;;;;;;;;;;4976022;28;20008;-80
2022/04/21 14:58:53;;;;;;;;;;;;;;;;;;4956367;28;19929;-80
2022/04/21 15:01:35;;;;;;;;;;;;;;;;;;4947744;28;20301;-80
2022/04/21 15:04:22;;;;;;;;;;;;;;;;;;4952024;28;19921;-79
2022/04/21 15:06:48;;;;;;;;;;;;;;;;;;4935525;28;20049;-80
2022/04/21 15:09:16;;;;;;;;;;;;;;;;;;4948552;28;20333;-80
2022/04/21 15:11:44;;;;;;;;;;;;;;;;;;4933835;28;19926;-80
2022/04/21 15:14:11;;;;;;;;;;;;;;;;;;4923405;28;19988;-79
2022/04/21 15:16:38;;;;;;;;;;;;;;;;;;4916885;28;19970;-79
2022/04/21 15:19:06;;;;;;;;;;;;;;;;;;4928081;28;20435;-79
2022/04/21 15:21:36;;;;;;;;;;;;;;;;;;4931962;28;20329;-79
2022/04/21 15:24:04;;;;;;;;;;;;;;;;;;4927355;28;19988;-79
2022/04/21 15:26:30;;;;;;;;;;;;;;;;;;4932235;28;19937;-79
2022/04/21 15:28:56;;;;;;;;;;;;;;;;;;4940717;28;19926;-79
2022/04/21 15:31:29;;;;;;;;;;;;;;;;;;4948859;28;20357;-79
2022/04/21 15:33:55;;;;;;;;;;;;;;;;;;4971780;28;19928;-79
2022/04/21 15:36:22;;;;;;;;;;;;;;;;;;4975906;28;20394;-79
2022/04/21 15:38:49;;;;;;;;;;;;;;;;;;4975274;28;19929;-80
2022/04/21 15:41:17;;;;;;;;;;;;;;;;;;4967806;28;20388;-80
2022/04/21 15:43:47;;;;;;;;;;;;;;;;;;4979631;28;19966;-80
2022/04/21 15:46:14;;;;;;;;;;;;;;;;;;5005215;28;19925;-80
2022/04/21 15:48:40;;;;;;;;;;;;;;;;;;4975282;28;19974;-80
2022/04/21 15:51:07;;;;;;;;;;;;;;;;;;5002420;28;19979;-81
2022/04/21 15:59:12;;;;;;;;;;;;;;;;;;4975776;28;19934;-80
2022/04/21 16:01:38;;;;;;;;;;;;;;;;;;4980261;28;19937;-80
2022/04/21 16:04:10;;;;;;;;;;;;;;;;;;4981917;28;20139;-80
2022/04/21 16:06:40;;;;;;;;;;;;;;;;;;4980700;28;20669;-80
2022/04/21 16:09:13;;;;;;;;;;;;;;;;;;4984270;28;19953;-80
2022/04/21 16:11:55;;;;;;;;;;;;;;;;;;4960652;28;20017;-80
2022/04/21 16:14:25;;;;;;;;;;;;;;;;;;4970730;28;20078;-80
2022/04/21 16:16:52;;;;;;;;;;;;;;;;;;4947652;28;19957;-80
2022/04/21 16:19:18;;;;;;;;;;;;;;;;;;4955014;28;20093;-80
2022/04/21 16:21:44;;;;;;;;;;;;;;;;;;4929564;28;20017;-80
2022/04/21 16:24:12;;;;;;;;;;;;;;;;;;4960576;28;22070;-80
2022/04/21 16:26:39;;;;;;;;;;;;;;;;;;4959825;28;20068;-80
2022/04/21 16:29:07;;;;;;;;;;;;;;;;;;4934929;28;19937;-80
2022/04/21 16:31:49;;;;;;;;;;;;;;;;;;4960978;28;20557;-80
2022/04/21 16:34:19;;;;;;;;;;;;;;;;;;4954374;28;19930;-80
2022/04/21 16:36:46;;;;;;;;;;;;;;;;;;4953935;28;19933;-80
2022/04/21 16:39:15;;;;;;;;;;;;;;;;;;4942371;28;19934;-80
2022/04/21 16:41:42;;;;;;;;;;;;;;;;;;4944697;28;19934;-80
2022/04/21 16:44:09;;;;;;;;;;;;;;;;;;4942448;28;23233;-80
2022/04/21 16:46:40;;;;;;;;;;;;;;;;;;4966929;28;19933;-80
2022/04/21 16:49:20;;;;;;;;;;;;;;;;;;4941871;28;19929;-80
2022/04/21 16:51:48;;;;;;;;;;;;;;;;;;4927164;28;19956;-80
2022/04/21 16:54:31;;;;;;;;;;;;;;;;;;4940131;28;20353;-81
2022/04/21 16:57:01;;;;;;;;;;;;;;;;;;4940787;28;19933;-80
2022/04/21 16:59:27;;;;;;;;;;;;;;;;;;4947512;28;21667;-81
2022/04/21 17:04:44;;;;;;;;;;;;;;;;;;5070423;22;19927;-82
2022/04/21 17:07:15;;;;;;;;;;;;;;;;;;5061756;28;20314;-84
2022/04/21 17:09:41;;;;;;;;;;;;;;;;;;5073082;28;19924;-83
2022/04/21 17:12:08;;;;;;;;;;;;;;;;;;5067590;28;19999;-82
2022/04/21 17:14:34;;;;;;;;;;;;;;;;;;5073818;28;20410;-81
2022/04/21 17:17:00;;;;;;;;;;;;;;;;;;5066945;28;19928;-81
2022/04/21 17:19:27;;;;;;;;;;;;;;;;;;5062213;28;19932;-81
2022/04/21 17:21:53;;;;;;;;;;;;;;;;;;5039274;28;20363;-81
2022/04/21 17:24:19;;;;;;;;;;;;;;;;;;5063889;28;20038;-81
2022/04/21 17:26:45;;;;;;;;;;;;;;;;;;5047391;28;20693;-80
2022/04/21 17:35:32;;;;;;;;;;;;;;;;;;5180508;22;19939;-85
2022/04/21 17:37:58;;;;;;;;;;;;;;;;;;5105141;27;19938;-85
2022/04/21 17:40:27;;;;;;;;;;;;;;;;;;5110712;27;19935;-85
2022/04/21 17:42:58;;;;;;;;;;;;;;;;;;5110511;27;20297;-84
2022/04/21 17:45:24;;;;;;;;;;;;;;;;;;5095250;27;19928;-85
2022/04/21 17:47:50;;;;;;;;;;;;;;;;;;5109075;27;19955;-85
2022/04/21 17:50:16;;;;;;;;;;;;;;;;;;5095391;27;20338;-85
2022/04/21 17:52:43;;;;;;;;;;;;;;;;;;5090930;27;19987;-85
2022/04/21 17:55:09;;;;;;;;;;;;;;;;;;5092460;27;19934;-85
2022/04/21 17:57:35;;;;;;;;;;;;;;;;;;5094107;27;19920;-84
2022/04/21 18:00:01;;;;;;;;;;;;;;;;;;5090766;27;19931;-85
2022/04/21 18:02:27;;;;;;;;;;;;;;;;;;5078189;27;19927;-85
2022/04/21 18:04:52;;;;;;;;;;;;;;;;;;5089504;27;20772;-85
2022/04/21 18:07:20;;;;;;;;;;;;;;;;;;5076936;27;19926;-85
2022/04/21 18:09:51;;;;;;;;;;;;;;;;;;5096847;27;19941;-85
2022/04/21 18:12:17;;;;;;;;;;;;;;;;;;5091605;27;19935;-85
2022/04/21 18:14:46;;;;;;;;;;;;;;;;;;5098752;27;19920;-85